Time;durP1;ratioP1;P1;durP2;ratioP2;P2;SDS_P1;SDS_P2;PMS_P1;PMS_P2;Temp;Humidity;BMP_temperature;BMP_pressure;BME280_temperature;BME280_humidity;BME280_pressure;Samples;Min_cycle;Max_cycle;Signal;HPM_P1;HPM_P2
2023/12/31 00:00:03;;;;;;;2.97;1.50;;;;;;;;;;522165;28;1894;-77
2023/12/31 00:00:18;;;;;;;2.72;1.50;;;;;;;;;;522542;28;1385;-76
2023/12/31 00:00:35;;;;;;;2.20;1.58;;;;;;;;;;522764;28;1446;-76
2023/12/31 00:00:50;;;;;;;2.45;1.60;;;;;;;;;;523045;28;1371;-77
2023/12/31 00:01:05;;;;;;;2.80;1.57;;;;;;;;;;523127;28;1442;-76
2023/12/31 00:01:23;;;;;;;2.23;1.40;;;;;;;;;;522852;28;1441;-76
2023/12/31 00:01:39;;;;;;;2.42;1.60;;;;;;;;;;522450;28;1905;-76
2023/12/31 00:01:54;;;;;;;3.20;1.77;;;;;;;;;;522690;28;1419;-77
2023/12/31 00:02:09;;;;;;;2.93;1.70;;;;;;;;;;522566;28;1860;-77
2023/12/31 00:02:24;;;;;;;2.60;1.67;;;;;;;;;;525153;28;1286;-77
2023/12/31 00:02:40;;;;;;;2.45;1.60;;;;;;;;;;524843;28;1397;-76
2023/12/31 00:02:55;;;;;;;2.80;1.53;;;;;;;;;;523984;28;1414;-75
2023/12/31 00:03:10;;;;;;;3.47;1.43;;;;;;;;;;523737;28;1228;-76
2023/12/31 00:03:26;;;;;;;3.03;1.50;;;;;;;;;;523130;28;2294;-75
2023/12/31 00:03:41;;;;;;;2.17;1.60;;;;;;;;;;520152;28;1559;-74
2023/12/31 00:03:56;;;;;;;2.57;1.60;;;;;;;;;;519881;28;1467;-75
2023/12/31 00:04:12;;;;;;;2.80;1.60;;;;;;;;;;521398;28;1585;-75
2023/12/31 00:04:27;;;;;;;2.15;1.50;;;;;;;;;;522859;28;1284;-75
2023/12/31 00:04:42;;;;;;;2.13;1.50;;;;;;;;;;519684;28;1494;-75
2023/12/31 00:04:57;;;;;;;2.23;1.50;;;;;;;;;;519317;28;1916;-73
2023/12/31 00:05:13;;;;;;;2.40;1.60;;;;;;;;;;518213;28;1565;-75
2023/12/31 00:05:28;;;;;;;2.73;1.60;;;;;;;;;;518435;28;1558;-74
2023/12/31 00:05:43;;;;;;;2.47;1.60;;;;;;;;;;520514;28;1919;-74
2023/12/31 00:05:59;;;;;;;2.15;1.60;;;;;;;;;;519188;28;1577;-74
2023/12/31 00:06:14;;;;;;;2.17;1.50;;;;;;;;;;519901;28;1384;-74
2023/12/31 00:06:29;;;;;;;2.57;1.43;;;;;;;;;;519972;28;1714;-74
2023/12/31 00:06:45;;;;;;;4.17;1.50;;;;;;;;;;522276;28;2280;-75
2023/12/31 00:07:00;;;;;;;3.80;1.52;;;;;;;;;;522413;28;1814;-74
2023/12/31 00:07:15;;;;;;;2.70;1.50;;;;;;;;;;524872;28;1188;-75
2023/12/31 00:07:30;;;;;;;2.97;1.53;;;;;;;;;;524370;28;1474;-76
2023/12/31 00:07:46;;;;;;;3.00;1.60;;;;;;;;;;524506;28;1421;-75
2023/12/31 00:08:01;;;;;;;2.77;1.43;;;;;;;;;;524446;28;1526;-76
2023/12/31 00:08:16;;;;;;;2.37;1.40;;;;;;;;;;521898;28;1512;-77
2023/12/31 00:08:32;;;;;;;1.92;1.50;;;;;;;;;;522363;28;3051;-79
2023/12/31 00:08:47;;;;;;;1.70;1.50;;;;;;;;;;522590;28;1415;-75
2023/12/31 00:09:02;;;;;;;2.17;1.43;;;;;;;;;;522184;28;1155;-76
2023/12/31 00:09:17;;;;;;;2.42;1.50;;;;;;;;;;522574;28;1485;-75
2023/12/31 00:09:33;;;;;;;2.93;1.60;;;;;;;;;;521994;28;1364;-76
2023/12/31 00:09:48;;;;;;;3.13;1.60;;;;;;;;;;519733;28;1439;-75
2023/12/31 00:10:05;;;;;;;2.80;1.50;;;;;;;;;;520366;28;2028;-75
2023/12/31 00:10:21;;;;;;;3.50;1.42;;;;;;;;;;521780;28;1481;-75
2023/12/31 00:10:38;;;;;;;2.67;1.50;;;;;;;;;;522687;28;1439;-75
2023/12/31 00:10:54;;;;;;;1.55;1.40;;;;;;;;;;521823;28;1324;-76
2023/12/31 00:11:10;;;;;;;1.60;1.33;;;;;;;;;;519649;28;1344;-76
2023/12/31 00:11:25;;;;;;;1.88;1.40;;;;;;;;;;520382;28;1364;-75
2023/12/31 00:11:40;;;;;;;2.60;1.57;;;;;;;;;;519706;28;1877;-75
2023/12/31 00:11:56;;;;;;;2.45;1.50;;;;;;;;;;521031;28;1498;-75
2023/12/31 00:12:11;;;;;;;1.97;1.47;;;;;;;;;;519892;28;1473;-75
2023/12/31 00:12:26;;;;;;;2.97;1.60;;;;;;;;;;520602;28;1372;-75
2023/12/31 00:12:42;;;;;;;3.20;1.63;;;;;;;;;;520549;28;1544;-75
2023/12/31 00:12:57;;;;;;;2.53;1.57;;;;;;;;;;521167;28;1478;-76
2023/12/31 00:13:12;;;;;;;2.70;1.50;;;;;;;;;;522042;28;2001;-75
2023/12/31 00:13:28;;;;;;;2.53;1.48;;;;;;;;;;523132;28;1534;-75
2023/12/31 00:13:43;;;;;;;2.30;1.40;;;;;;;;;;522597;28;1439;-75
2023/12/31 00:13:59;;;;;;;2.25;1.40;;;;;;;;;;522728;28;1462;-75
2023/12/31 00:14:14;;;;;;;2.97;1.50;;;;;;;;;;523084;28;1387;-75
2023/12/31 00:14:30;;;;;;;3.10;1.63;;;;;;;;;;522204;28;1866;-75
2023/12/31 00:14:45;;;;;;;2.20;1.60;;;;;;;;;;521170;28;1237;-75
2023/12/31 00:15:01;;;;;;;1.97;1.50;;;;;;;;;;520478;28;2035;-75
2023/12/31 00:15:16;;;;;;;1.92;1.45;;;;;;;;;;520276;28;1357;-75
2023/12/31 00:15:32;;;;;;;2.45;1.38;;;;;;;;;;519929;28;1551;-75
2023/12/31 00:15:47;;;;;;;2.50;1.40;;;;;;;;;;520242;28;1435;-75
2023/12/31 00:16:03;;;;;;;2.20;1.30;;;;;;;;;;520733;28;1546;-75
2023/12/31 00:16:18;;;;;;;2.80;1.40;;;;;;;;;;518033;28;1409;-75
2023/12/31 00:16:33;;;;;;;2.70;1.50;;;;;;;;;;518583;28;1679;-75
2023/12/31 00:16:49;;;;;;;2.60;1.60;;;;;;;;;;519750;28;1418;-75
2023/12/31 00:17:04;;;;;;;2.60;1.50;;;;;;;;;;520718;28;1464;-75
2023/12/31 00:17:20;;;;;;;2.40;1.60;;;;;;;;;;521487;28;1411;-75
2023/12/31 00:17:35;;;;;;;2.53;1.60;;;;;;;;;;523582;28;1435;-75
2023/12/31 00:17:50;;;;;;;2.65;1.70;;;;;;;;;;522823;28;1255;-75
2023/12/31 00:18:06;;;;;;;2.50;1.60;;;;;;;;;;523366;28;1846;-76
2023/12/31 00:18:21;;;;;;;2.37;1.50;;;;;;;;;;523602;28;1415;-75
2023/12/31 00:18:36;;;;;;;1.93;1.33;;;;;;;;;;523118;28;1430;-74
2023/12/31 00:18:52;;;;;;;2.00;1.50;;;;;;;;;;521115;28;1620;-75
2023/12/31 00:19:08;;;;;;;2.83;1.70;;;;;;;;;;521440;28;1517;-75
2023/12/31 00:19:23;;;;;;;3.37;1.70;;;;;;;;;;521429;28;1627;-75
2023/12/31 00:19:38;;;;;;;3.43;1.70;;;;;;;;;;522450;28;1864;-75
2023/12/31 00:19:53;;;;;;;2.88;1.67;;;;;;;;;;523404;28;1513;-75
2023/12/31 00:20:09;;;;;;;2.70;1.70;;;;;;;;;;521644;28;1233;-76
2023/12/31 00:20:24;;;;;;;2.95;1.65;;;;;;;;;;523540;28;1423;-75
2023/12/31 00:20:40;;;;;;;2.90;1.67;;;;;;;;;;521422;28;1603;-76
2023/12/31 00:20:55;;;;;;;2.20;1.50;;;;;;;;;;520784;28;1788;-76
2023/12/31 00:21:10;;;;;;;2.25;1.42;;;;;;;;;;521496;28;1245;-75
2023/12/31 00:21:26;;;;;;;2.50;1.60;;;;;;;;;;521382;28;1785;-75
2023/12/31 00:21:42;;;;;;;2.00;1.60;;;;;;;;;;521341;28;1375;-74
2023/12/31 00:21:57;;;;;;;2.20;1.63;;;;;;;;;;521593;28;1257;-74
2023/12/31 00:22:12;;;;;;;2.60;1.80;;;;;;;;;;523621;28;1410;-74
2023/12/31 00:22:28;;;;;;;3.43;1.90;;;;;;;;;;521087;28;1388;-74
2023/12/31 00:22:43;;;;;;;3.47;1.80;;;;;;;;;;523567;28;1390;-75
2023/12/31 00:22:58;;;;;;;2.80;1.80;;;;;;;;;;521240;28;2261;-75
2023/12/31 00:23:14;;;;;;;2.47;1.77;;;;;;;;;;521463;28;1490;-75
2023/12/31 00:23:29;;;;;;;2.17;1.60;;;;;;;;;;521560;28;1494;-75
2023/12/31 00:23:44;;;;;;;2.47;1.40;;;;;;;;;;521432;28;1376;-75
2023/12/31 00:23:59;;;;;;;2.85;1.60;;;;;;;;;;521296;28;1407;-76
2023/12/31 00:24:15;;;;;;;2.70;1.80;;;;;;;;;;521605;28;1423;-76
2023/12/31 00:24:30;;;;;;;2.63;1.67;;;;;;;;;;523531;28;1665;-75
2023/12/31 00:24:45;;;;;;;2.65;1.60;;;;;;;;;;523876;28;1638;-75
2023/12/31 00:25:01;;;;;;;2.37;1.60;;;;;;;;;;523114;28;1423;-75
2023/12/31 00:25:16;;;;;;;2.07;1.50;;;;;;;;;;521385;28;1526;-75
2023/12/31 00:25:31;;;;;;;2.28;1.60;;;;;;;;;;519501;28;1262;-75
2023/12/31 00:25:47;;;;;;;2.73;1.67;;;;;;;;;;519385;28;1914;-76
2023/12/31 00:26:02;;;;;;;2.77;1.60;;;;;;;;;;518940;28;1463;-75
2023/12/31 00:26:17;;;;;;;2.67;1.65;;;;;;;;;;519276;28;2246;-75
2023/12/31 00:26:32;;;;;;;2.37;1.60;;;;;;;;;;519642;28;1384;-76
2023/12/31 00:26:48;;;;;;;2.53;1.70;;;;;;;;;;521376;28;1351;-75
2023/12/31 00:27:03;;;;;;;2.53;1.63;;;;;;;;;;522645;28;1434;-74
2023/12/31 00:27:18;;;;;;;3.07;1.50;;;;;;;;;;523490;28;1430;-75
2023/12/31 00:27:34;;;;;;;4.00;1.70;;;;;;;;;;523844;28;1496;-75
2023/12/31 00:27:49;;;;;;;3.30;1.80;;;;;;;;;;523437;28;1879;-73
2023/12/31 00:28:04;;;;;;;2.53;1.70;;;;;;;;;;523350;28;1390;-73
2023/12/31 00:28:20;;;;;;;2.40;1.60;;;;;;;;;;520844;28;1443;-75
2023/12/31 00:28:35;;;;;;;4.87;1.70;;;;;;;;;;521359;28;1134;-75
2023/12/31 00:28:50;;;;;;;4.63;1.50;;;;;;;;;;521145;28;1415;-75
2023/12/31 00:29:05;;;;;;;2.27;1.60;;;;;;;;;;521222;28;1161;-75
2023/12/31 00:29:21;;;;;;;2.53;1.80;;;;;;;;;;521179;28;1404;-75
2023/12/31 00:29:37;;;;;;;2.38;1.80;;;;;;;;;;521286;28;2190;-75
2023/12/31 00:29:52;;;;;;;2.60;1.73;;;;;;;;;;519625;28;1380;-75
2023/12/31 00:30:08;;;;;;;2.80;1.70;;;;;;;;;;521392;28;1367;-75
2023/12/31 00:30:23;;;;;;;2.40;1.53;;;;;;;;;;520627;28;1316;-75
2023/12/31 00:30:38;;;;;;;2.58;1.60;;;;;;;;;;520813;28;1821;-76
2023/12/31 00:30:54;;;;;;;2.80;1.70;;;;;;;;;;521243;28;1317;-75
2023/12/31 00:31:10;;;;;;;3.13;1.60;;;;;;;;;;521484;28;1626;-75
2023/12/31 00:31:25;;;;;;;3.67;1.70;;;;;;;;;;522861;28;1359;-75
2023/12/31 00:31:40;;;;;;;3.78;1.88;;;;;;;;;;523245;28;1386;-74
2023/12/31 00:31:55;;;;;;;3.07;1.73;;;;;;;;;;523660;28;1391;-75
2023/12/31 00:32:11;;;;;;;2.43;1.60;;;;;;;;;;523665;28;1194;-74
2023/12/31 00:32:26;;;;;;;2.38;1.70;;;;;;;;;;523570;28;1435;-74
2023/12/31 00:32:41;;;;;;;2.37;1.60;;;;;;;;;;523623;28;1903;-74
2023/12/31 00:32:57;;;;;;;2.53;1.50;;;;;;;;;;523747;28;1359;-75
2023/12/31 00:33:12;;;;;;;2.80;1.60;;;;;;;;;;522928;28;1359;-75
2023/12/31 00:33:28;;;;;;;2.45;1.50;;;;;;;;;;523758;28;1387;-75
2023/12/31 00:33:43;;;;;;;2.53;1.55;;;;;;;;;;523776;28;1505;-75
2023/12/31 00:33:58;;;;;;;2.40;1.67;;;;;;;;;;522959;28;1390;-76
2023/12/31 00:34:14;;;;;;;2.27;1.60;;;;;;;;;;523072;28;1756;-75
2023/12/31 00:34:29;;;;;;;3.00;1.70;;;;;;;;;;523508;28;1398;-75
2023/12/31 00:34:44;;;;;;;3.28;1.70;;;;;;;;;;523688;28;1410;-75
2023/12/31 00:35:00;;;;;;;3.57;1.80;;;;;;;;;;523355;28;1347;-75
2023/12/31 00:35:15;;;;;;;3.60;1.80;;;;;;;;;;523571;28;1450;-75
2023/12/31 00:35:30;;;;;;;2.77;1.63;;;;;;;;;;523807;28;1406;-75
2023/12/31 00:35:46;;;;;;;2.63;1.60;;;;;;;;;;523461;28;1411;-75
2023/12/31 00:36:01;;;;;;;2.55;1.65;;;;;;;;;;522850;28;2220;-75
2023/12/31 00:36:17;;;;;;;2.40;1.60;;;;;;;;;;523481;28;1410;-76
2023/12/31 00:36:34;;;;;;;2.83;1.73;;;;;;;;;;523512;28;1610;-75
2023/12/31 00:36:49;;;;;;;2.60;1.67;;;;;;;;;;523183;28;1121;-75
2023/12/31 00:37:04;;;;;;;2.47;1.60;;;;;;;;;;522807;28;1383;-75
2023/12/31 00:37:20;;;;;;;2.50;1.80;;;;;;;;;;523427;28;1429;-75
2023/12/31 00:37:36;;;;;;;2.92;1.73;;;;;;;;;;523501;28;1868;-75
2023/12/31 00:37:51;;;;;;;2.75;1.52;;;;;;;;;;523325;28;2191;-75
2023/12/31 00:38:07;;;;;;;2.40;1.50;;;;;;;;;;523136;28;1414;-75
2023/12/31 00:38:22;;;;;;;2.65;1.60;;;;;;;;;;523766;28;1362;-75
2023/12/31 00:38:37;;;;;;;2.80;1.70;;;;;;;;;;523397;28;1367;-75
2023/12/31 00:38:53;;;;;;;3.27;1.70;;;;;;;;;;522933;28;1570;-75
2023/12/31 00:39:08;;;;;;;2.75;1.60;;;;;;;;;;522071;28;1864;-76
2023/12/31 00:39:24;;;;;;;2.20;1.73;;;;;;;;;;522778;28;1272;-74
2023/12/31 00:39:39;;;;;;;2.42;1.75;;;;;;;;;;521191;28;1706;-75
2023/12/31 00:39:54;;;;;;;2.73;1.60;;;;;;;;;;521186;28;1688;-76
2023/12/31 00:40:10;;;;;;;3.03;1.60;;;;;;;;;;518958;28;1585;-75
2023/12/31 00:40:25;;;;;;;2.70;1.70;;;;;;;;;;517124;28;1554;-75
2023/12/31 00:40:41;;;;;;;2.20;1.70;;;;;;;;;;516629;28;1982;-75
2023/12/31 00:40:56;;;;;;;2.05;1.60;;;;;;;;;;517237;28;1484;-75
2023/12/31 00:41:11;;;;;;;3.30;1.70;;;;;;;;;;516871;28;1362;-75
2023/12/31 00:41:27;;;;;;;3.53;1.80;;;;;;;;;;516685;28;1401;-75
2023/12/31 00:41:42;;;;;;;2.53;1.80;;;;;;;;;;517880;28;1357;-75
2023/12/31 00:41:57;;;;;;;2.83;1.77;;;;;;;;;;519750;28;1381;-75
2023/12/31 00:42:13;;;;;;;4.40;1.70;;;;;;;;;;519956;28;1399;-74
2023/12/31 00:42:28;;;;;;;3.97;1.80;;;;;;;;;;521551;28;2201;-74
2023/12/31 00:42:43;;;;;;;2.40;1.70;;;;;;;;;;521445;28;1375;-75
2023/12/31 00:42:58;;;;;;;2.40;1.70;;;;;;;;;;521762;28;1470;-75
2023/12/31 00:43:14;;;;;;;2.65;1.88;;;;;;;;;;523317;28;1525;-75
2023/12/31 00:43:29;;;;;;;3.00;1.80;;;;;;;;;;521659;28;1414;-75
2023/12/31 00:43:44;;;;;;;2.80;1.60;;;;;;;;;;519350;28;1400;-75
2023/12/31 00:44:00;;;;;;;2.60;1.70;;;;;;;;;;519897;28;1400;-75
2023/12/31 00:44:15;;;;;;;2.75;1.88;;;;;;;;;;521659;28;1431;-75
2023/12/31 00:44:30;;;;;;;2.37;1.80;;;;;;;;;;521601;28;1447;-75
2023/12/31 00:44:45;;;;;;;2.60;1.77;;;;;;;;;;520830;28;1460;-75
2023/12/31 00:45:01;;;;;;;2.83;1.90;;;;;;;;;;520717;28;1447;-76
2023/12/31 00:45:16;;;;;;;2.30;1.80;;;;;;;;;;521600;28;1398;-75
2023/12/31 00:45:31;;;;;;;2.07;1.57;;;;;;;;;;523675;28;2202;-75
2023/12/31 00:45:47;;;;;;;2.28;1.65;;;;;;;;;;521729;28;1902;-75
2023/12/31 00:46:02;;;;;;;2.50;1.70;;;;;;;;;;523645;28;1466;-75
2023/12/31 00:46:17;;;;;;;3.40;1.60;;;;;;;;;;522837;28;1438;-75
2023/12/31 00:46:33;;;;;;;3.97;1.70;;;;;;;;;;523566;28;1402;-74
2023/12/31 00:46:48;;;;;;;3.60;1.70;;;;;;;;;;523213;28;1493;-75
2023/12/31 00:47:04;;;;;;;3.13;1.80;;;;;;;;;;522062;28;1395;-75
2023/12/31 00:47:19;;;;;;;2.95;1.83;;;;;;;;;;522952;28;3162;-75
2023/12/31 00:47:35;;;;;;;4.23;1.80;;;;;;;;;;520462;28;1828;-75
2023/12/31 00:47:50;;;;;;;3.87;1.70;;;;;;;;;;523405;28;1457;-76
2023/12/31 00:48:05;;;;;;;2.63;1.80;;;;;;;;;;522808;28;1453;-75
2023/12/31 00:48:21;;;;;;;3.13;1.80;;;;;;;;;;522701;28;1477;-75
2023/12/31 00:48:36;;;;;;;3.03;1.90;;;;;;;;;;520190;28;1569;-75
2023/12/31 00:48:52;;;;;;;2.87;1.80;;;;;;;;;;520890;28;1515;-75
2023/12/31 00:49:07;;;;;;;2.75;1.70;;;;;;;;;;520592;28;1208;-75
2023/12/31 00:49:22;;;;;;;3.20;1.90;;;;;;;;;;520252;28;1285;-75
2023/12/31 00:49:37;;;;;;;2.87;1.70;;;;;;;;;;521554;28;1154;-75
2023/12/31 00:49:53;;;;;;;2.20;1.65;;;;;;;;;;521764;28;1356;-76
2023/12/31 00:50:08;;;;;;;3.40;1.83;;;;;;;;;;522852;28;1090;-75
2023/12/31 00:50:24;;;;;;;3.50;1.80;;;;;;;;;;522902;28;1426;-75
2023/12/31 00:50:39;;;;;;;3.00;1.73;;;;;;;;;;522539;28;1835;-75
2023/12/31 00:50:54;;;;;;;3.10;1.80;;;;;;;;;;523434;28;1378;-74
2023/12/31 00:51:10;;;;;;;2.85;1.80;;;;;;;;;;522790;28;1881;-75
2023/12/31 00:51:25;;;;;;;3.27;1.70;;;;;;;;;;523205;28;1296;-76
2023/12/31 00:51:40;;;;;;;3.13;1.70;;;;;;;;;;524994;28;1394;-74
2023/12/31 00:51:56;;;;;;;3.03;1.70;;;;;;;;;;525600;28;1414;-75
2023/12/31 00:52:11;;;;;;;3.40;1.70;;;;;;;;;;523229;28;1949;-75
2023/12/31 00:52:26;;;;;;;3.00;1.70;;;;;;;;;;523532;28;1288;-75
2023/12/31 00:52:42;;;;;;;2.80;1.73;;;;;;;;;;520225;28;1419;-75
2023/12/31 00:52:57;;;;;;;3.13;1.67;;;;;;;;;;521295;28;1435;-75
2023/12/31 00:53:12;;;;;;;3.10;1.70;;;;;;;;;;520984;28;1443;-74
2023/12/31 00:53:27;;;;;;;2.53;1.80;;;;;;;;;;521381;28;1518;-75
2023/12/31 00:53:43;;;;;;;2.35;1.70;;;;;;;;;;521175;28;1527;-75
2023/12/31 00:53:58;;;;;;;2.20;1.70;;;;;;;;;;521422;28;1471;-75
2023/12/31 00:54:13;;;;;;;2.20;1.80;;;;;;;;;;521066;28;1354;-75
2023/12/31 00:54:28;;;;;;;1.90;1.70;;;;;;;;;;520909;28;1371;-75
2023/12/31 00:54:46;;;;;;;2.00;1.70;;;;;;;;;;521932;28;1373;-75
2023/12/31 00:55:01;;;;;;;2.47;1.70;;;;;;;;;;519085;28;1368;-76
2023/12/31 00:55:16;;;;;;;2.60;1.60;;;;;;;;;;522265;28;1411;-75
2023/12/31 00:55:32;;;;;;;2.50;1.70;;;;;;;;;;519851;28;1825;-67
2023/12/31 00:55:47;;;;;;;2.30;1.67;;;;;;;;;;520248;28;1404;-68
2023/12/31 00:56:03;;;;;;;2.53;1.50;;;;;;;;;;520312;28;1589;-68
2023/12/31 00:56:18;;;;;;;2.78;1.60;;;;;;;;;;522548;28;1404;-69
2023/12/31 00:56:33;;;;;;;2.53;1.70;;;;;;;;;;520744;28;1552;-69
2023/12/31 00:56:48;;;;;;;2.67;1.70;;;;;;;;;;519531;28;1416;-70
2023/12/31 00:57:04;;;;;;;2.60;1.70;;;;;;;;;;519449;28;1976;-68
2023/12/31 00:57:19;;;;;;;2.63;1.73;;;;;;;;;;520358;28;1631;-68
2023/12/31 00:57:34;;;;;;;2.47;1.88;;;;;;;;;;522547;28;1524;-68
2023/12/31 00:57:50;;;;;;;2.90;1.80;;;;;;;;;;521504;28;1598;-69
2023/12/31 00:58:07;;;;;;;2.90;1.73;;;;;;;;;;521503;28;1395;-68
2023/12/31 00:58:22;;;;;;;2.60;1.70;;;;;;;;;;521636;28;1574;-68
2023/12/31 00:58:37;;;;;;;2.93;1.77;;;;;;;;;;521847;28;1563;-68
2023/12/31 00:58:53;;;;;;;2.78;1.80;;;;;;;;;;522358;28;2012;-69
2023/12/31 00:59:08;;;;;;;2.43;1.57;;;;;;;;;;522194;28;1355;-69
2023/12/31 00:59:23;;;;;;;2.40;1.50;;;;;;;;;;521419;28;1543;-68
2023/12/31 00:59:38;;;;;;;2.15;1.65;;;;;;;;;;522104;28;1514;-68
2023/12/31 00:59:54;;;;;;;2.30;1.70;;;;;;;;;;522522;28;1288;-69
2023/12/31 01:00:10;;;;;;;2.37;1.60;;;;;;;;;;520458;28;1597;-69
2023/12/31 01:00:25;;;;;;;2.35;1.60;;;;;;;;;;518250;28;1891;-69
2023/12/31 01:00:40;;;;;;;3.03;1.80;;;;;;;;;;516741;28;1522;-68
2023/12/31 01:00:56;;;;;;;2.85;1.73;;;;;;;;;;516859;28;1329;-69
2023/12/31 01:01:11;;;;;;;3.13;1.60;;;;;;;;;;516039;28;1442;-68
2023/12/31 01:01:26;;;;;;;2.73;1.50;;;;;;;;;;518587;28;1502;-69
2023/12/31 01:01:41;;;;;;;2.45;1.60;;;;;;;;;;517934;28;1552;-69
2023/12/31 01:01:57;;;;;;;2.73;1.73;;;;;;;;;;517873;28;1412;-69
2023/12/31 01:02:12;;;;;;;2.40;1.70;;;;;;;;;;518452;28;1973;-69
2023/12/31 01:02:29;;;;;;;2.35;1.70;;;;;;;;;;519743;28;1775;-68
2023/12/31 01:02:45;;;;;;;2.85;1.80;;;;;;;;;;522869;28;1374;-69
2023/12/31 01:03:00;;;;;;;2.70;1.70;;;;;;;;;;522367;28;1524;-69
2023/12/31 01:03:15;;;;;;;2.65;1.73;;;;;;;;;;521460;28;1327;-69
2023/12/31 01:03:33;;;;;;;3.00;1.67;;;;;;;;;;522199;28;1481;-69
2023/12/31 01:03:48;;;;;;;2.92;1.75;;;;;;;;;;523013;28;1899;-69
2023/12/31 01:04:03;;;;;;;3.28;2.05;;;;;;;;;;522803;28;1681;-69
2023/12/31 01:04:19;;;;;;;3.03;2.00;;;;;;;;;;522892;28;1426;-69
2023/12/31 01:04:36;;;;;;;2.40;1.80;;;;;;;;;;522879;28;1252;-68
2023/12/31 01:04:51;;;;;;;2.38;1.70;;;;;;;;;;521114;28;1559;-69
2023/12/31 01:05:07;;;;;;;3.05;1.70;;;;;;;;;;522202;28;1421;-68
2023/12/31 01:05:22;;;;;;;3.30;1.70;;;;;;;;;;521827;28;1942;-69
2023/12/31 01:05:37;;;;;;;3.28;1.60;;;;;;;;;;521987;28;2158;-69
2023/12/31 01:05:53;;;;;;;2.83;1.70;;;;;;;;;;518943;28;1633;-68
2023/12/31 01:06:08;;;;;;;2.47;1.70;;;;;;;;;;516772;28;1271;-69
2023/12/31 01:06:23;;;;;;;2.60;1.75;;;;;;;;;;518321;28;1225;-69
2023/12/31 01:06:39;;;;;;;2.57;1.80;;;;;;;;;;517955;28;1482;-69
2023/12/31 01:06:54;;;;;;;2.40;1.80;;;;;;;;;;519593;28;1296;-69
2023/12/31 01:07:09;;;;;;;2.20;1.75;;;;;;;;;;518956;28;1893;-69
2023/12/31 01:07:24;;;;;;;2.03;1.60;;;;;;;;;;518590;28;1533;-69
2023/12/31 01:07:40;;;;;;;2.27;1.60;;;;;;;;;;518777;28;1375;-69
2023/12/31 01:07:55;;;;;;;2.33;1.60;;;;;;;;;;520612;28;1468;-69
2023/12/31 01:08:10;;;;;;;2.95;1.67;;;;;;;;;;520105;28;1447;-69
2023/12/31 01:08:26;;;;;;;3.17;1.80;;;;;;;;;;520038;28;1396;-69
2023/12/31 01:08:41;;;;;;;2.33;1.70;;;;;;;;;;517878;28;1476;-69
2023/12/31 01:08:58;;;;;;;2.80;1.90;;;;;;;;;;518133;28;1875;-69
2023/12/31 01:09:13;;;;;;;3.38;2.10;;;;;;;;;;518137;28;1679;-69
2023/12/31 01:09:28;;;;;;;3.70;1.90;;;;;;;;;;518431;28;1475;-68
2023/12/31 01:09:44;;;;;;;3.47;1.70;;;;;;;;;;520209;28;1328;-69
2023/12/31 01:09:59;;;;;;;2.58;1.60;;;;;;;;;;517937;28;1425;-69
2023/12/31 01:10:15;;;;;;;2.40;1.60;;;;;;;;;;520371;28;1416;-68
2023/12/31 01:10:30;;;;;;;2.38;1.60;;;;;;;;;;520914;28;1891;-68
2023/12/31 01:10:46;;;;;;;3.07;1.80;;;;;;;;;;522237;28;1390;-69
2023/12/31 01:11:01;;;;;;;3.72;1.90;;;;;;;;;;522810;28;1482;-68
2023/12/31 01:11:17;;;;;;;2.50;1.87;;;;;;;;;;521798;28;1264;-69
2023/12/31 01:11:34;;;;;;;2.40;1.75;;;;;;;;;;522077;28;1516;-69
2023/12/31 01:11:49;;;;;;;2.63;1.70;;;;;;;;;;521208;28;1507;-69
2023/12/31 01:12:04;;;;;;;2.42;1.73;;;;;;;;;;524019;28;1866;-69
2023/12/31 01:12:20;;;;;;;2.30;1.70;;;;;;;;;;523643;28;1367;-69
2023/12/31 01:12:35;;;;;;;2.27;1.70;;;;;;;;;;523368;28;1883;-69
2023/12/31 01:12:50;;;;;;;2.33;1.70;;;;;;;;;;521458;28;1449;-69
2023/12/31 01:13:06;;;;;;;2.30;1.63;;;;;;;;;;520963;28;1414;-69
2023/12/31 01:13:21;;;;;;;2.10;1.50;;;;;;;;;;518441;28;1395;-68
2023/12/31 01:13:36;;;;;;;2.20;1.60;;;;;;;;;;519079;28;1478;-69
2023/12/31 01:13:52;;;;;;;2.80;1.77;;;;;;;;;;518637;28;2194;-69
2023/12/31 01:14:07;;;;;;;3.42;1.77;;;;;;;;;;518846;28;1424;-69
2023/12/31 01:14:22;;;;;;;3.33;1.70;;;;;;;;;;518722;28;1423;-69
2023/12/31 01:14:38;;;;;;;3.60;1.70;;;;;;;;;;518661;28;1337;-68
2023/12/31 01:14:53;;;;;;;5.72;1.80;;;;;;;;;;520994;28;1722;-69
2023/12/31 01:15:09;;;;;;;4.53;1.80;;;;;;;;;;520974;28;1287;-69
2023/12/31 01:15:24;;;;;;;2.40;1.70;;;;;;;;;;521039;28;2129;-69
2023/12/31 01:15:40;;;;;;;2.37;1.70;;;;;;;;;;520543;28;1341;-68
2023/12/31 01:15:55;;;;;;;1.95;1.60;;;;;;;;;;521164;28;1407;-69
2023/12/31 01:16:10;;;;;;;1.70;1.50;;;;;;;;;;520884;28;1263;-69
2023/12/31 01:16:25;;;;;;;2.00;1.50;;;;;;;;;;521388;28;1836;-69
2023/12/31 01:16:41;;;;;;;2.43;1.70;;;;;;;;;;521167;28;1237;-68
2023/12/31 01:16:56;;;;;;;2.50;1.80;;;;;;;;;;520276;28;1932;-69
2023/12/31 01:17:11;;;;;;;2.40;1.60;;;;;;;;;;521213;28;1432;-69
2023/12/31 01:17:27;;;;;;;2.87;1.57;;;;;;;;;;521156;28;1396;-69
2023/12/31 01:17:42;;;;;;;3.25;1.70;;;;;;;;;;520734;28;1597;-69
2023/12/31 01:17:57;;;;;;;3.23;1.70;;;;;;;;;;519037;28;1417;-69
2023/12/31 01:18:12;;;;;;;3.47;1.70;;;;;;;;;;518557;28;1401;-69
2023/12/31 01:18:28;;;;;;;3.20;1.63;;;;;;;;;;521567;28;1508;-69
2023/12/31 01:18:43;;;;;;;3.65;1.70;;;;;;;;;;523304;28;2378;-69
2023/12/31 01:18:59;;;;;;;4.03;1.77;;;;;;;;;;522746;28;1224;-68
2023/12/31 01:19:16;;;;;;;3.57;1.90;;;;;;;;;;520672;28;1353;-68
2023/12/31 01:19:31;;;;;;;2.65;1.88;;;;;;;;;;521379;28;1376;-69
2023/12/31 01:19:46;;;;;;;3.27;1.90;;;;;;;;;;522021;28;1028;-69
2023/12/31 01:20:04;;;;;;;3.47;1.95;;;;;;;;;;211011;28;10000917;-69
2023/12/31 01:20:19;;;;;;;3.17;1.77;;;;;;;;;;523369;28;1450;-69
2023/12/31 01:20:35;;;;;;;3.30;1.80;;;;;;;;;;523103;28;1558;-69
2023/12/31 01:20:50;;;;;;;2.88;1.75;;;;;;;;;;520354;28;1556;-69
2023/12/31 01:21:06;;;;;;;3.00;1.70;;;;;;;;;;519908;28;1380;-69
2023/12/31 01:21:22;;;;;;;2.95;1.70;;;;;;;;;;520956;28;1459;-69
2023/12/31 01:21:37;;;;;;;2.50;1.80;;;;;;;;;;523278;28;881;-69
2023/12/31 01:21:52;;;;;;;2.33;1.70;;;;;;;;;;521145;28;1410;-69
2023/12/31 01:22:08;;;;;;;2.22;1.60;;;;;;;;;;519622;28;1183;-68
2023/12/31 01:22:23;;;;;;;2.40;1.80;;;;;;;;;;520816;28;1747;-69
2023/12/31 01:22:38;;;;;;;2.37;1.87;;;;;;;;;;521629;28;861;-68
2023/12/31 01:22:53;;;;;;;3.30;1.77;;;;;;;;;;523331;28;1182;-68
2023/12/31 01:23:09;;;;;;;3.88;1.88;;;;;;;;;;523092;28;1327;-68
2023/12/31 01:23:25;;;;;;;3.43;2.00;;;;;;;;;;523445;28;818;-69
2023/12/31 01:23:40;;;;;;;3.13;1.80;;;;;;;;;;523505;28;1280;-69
2023/12/31 01:23:56;;;;;;;3.13;1.80;;;;;;;;;;520915;28;1275;-69
2023/12/31 01:24:11;;;;;;;3.47;1.70;;;;;;;;;;521456;28;830;-69
2023/12/31 01:24:26;;;;;;;3.53;1.67;;;;;;;;;;521147;28;1201;-69
2023/12/31 01:24:41;;;;;;;3.40;1.80;;;;;;;;;;517993;28;1259;-69
2023/12/31 01:24:57;;;;;;;2.92;1.90;;;;;;;;;;519051;28;1212;-69
2023/12/31 01:25:12;;;;;;;2.90;1.80;;;;;;;;;;517721;28;1793;-69
2023/12/31 01:25:27;;;;;;;2.92;1.90;;;;;;;;;;518145;28;932;-68
2023/12/31 01:25:43;;;;;;;2.40;1.83;;;;;;;;;;519327;28;1906;-69
2023/12/31 01:25:58;;;;;;;2.30;1.70;;;;;;;;;;521597;28;1036;-69
2023/12/31 01:26:14;;;;;;;2.83;1.70;;;;;;;;;;523463;28;885;-68
2023/12/31 01:26:29;;;;;;;2.78;1.80;;;;;;;;;;523423;28;876;-68
2023/12/31 01:26:44;;;;;;;2.97;2.00;;;;;;;;;;523273;28;988;-69
2023/12/31 01:26:59;;;;;;;3.17;2.08;;;;;;;;;;523246;28;1316;-68
2023/12/31 01:27:15;;;;;;;3.33;1.97;;;;;;;;;;523415;28;1388;-69
2023/12/31 01:27:30;;;;;;;3.33;1.90;;;;;;;;;;523534;28;913;-69
2023/12/31 01:27:45;;;;;;;2.80;1.83;;;;;;;;;;523517;28;853;-69
2023/12/31 01:28:01;;;;;;;2.60;1.70;;;;;;;;;;522850;28;1007;-69
2023/12/31 01:28:16;;;;;;;2.80;1.60;;;;;;;;;;519164;28;1236;-68
2023/12/31 01:28:31;;;;;;;4.00;1.80;;;;;;;;;;519445;28;834;-68
2023/12/31 01:28:46;;;;;;;3.45;1.80;;;;;;;;;;519154;28;1170;-69
2023/12/31 01:29:02;;;;;;;2.70;1.70;;;;;;;;;;520253;28;1107;-68
2023/12/31 01:29:17;;;;;;;2.50;1.60;;;;;;;;;;523382;28;1158;-69
2023/12/31 01:29:36;;;;;;;2.10;1.60;;;;;;;;;;521364;28;1417;-69
2023/12/31 01:29:51;;;;;;;2.83;1.73;;;;;;;;;;521288;28;1044;-69
2023/12/31 01:30:07;;;;;;;3.15;1.60;;;;;;;;;;521337;28;850;-68
2023/12/31 01:30:24;;;;;;;3.50;1.58;;;;;;;;;;520760;28;1397;-68
2023/12/31 01:30:39;;;;;;;2.90;1.65;;;;;;;;;;520535;28;1072;-69
2023/12/31 01:30:55;;;;;;;2.35;1.65;;;;;;;;;;519254;28;1808;-69
2023/12/31 01:31:20;;;;;;;2.43;1.67;;;;;;;;;;521877;28;850;-69
2023/12/31 01:31:35;;;;;;;2.92;1.70;;;;;;;;;;523040;28;929;-68
2023/12/31 01:31:50;;;;;;;2.90;1.60;;;;;;;;;;523317;28;995;-68
2023/12/31 01:32:06;;;;;;;2.78;1.70;;;;;;;;;;523336;28;940;-68
2023/12/31 01:32:21;;;;;;;2.90;1.67;;;;;;;;;;523487;28;864;-68
2023/12/31 01:32:37;;;;;;;3.90;1.70;;;;;;;;;;521249;28;1220;-69
2023/12/31 01:32:52;;;;;;;3.70;1.60;;;;;;;;;;521353;28;925;-68
2023/12/31 01:33:07;;;;;;;2.47;1.50;;;;;;;;;;521121;28;1398;-69
2023/12/31 01:33:23;;;;;;;2.65;1.65;;;;;;;;;;521429;28;1086;-68
2023/12/31 01:33:38;;;;;;;2.97;1.73;;;;;;;;;;521480;28;921;-69
2023/12/31 01:33:53;;;;;;;3.17;1.80;;;;;;;;;;519405;28;1155;-68
2023/12/31 01:34:08;;;;;;;2.60;1.73;;;;;;;;;;519449;28;1016;-69
2023/12/31 01:34:24;;;;;;;3.17;1.90;;;;;;;;;;519392;28;941;-69
2023/12/31 01:34:39;;;;;;;3.73;1.90;;;;;;;;;;519324;28;1303;-69
2023/12/31 01:35:01;;;;;;;3.20;1.80;;;;;;;;;;519320;28;842;-68
2023/12/31 01:35:18;;;;;;;3.20;1.85;;;;;;;;;;519240;28;1400;-68
2023/12/31 01:35:33;;;;;;;3.58;2.00;;;;;;;;;;519456;28;886;-69
2023/12/31 01:35:48;;;;;;;2.65;1.80;;;;;;;;;;517244;28;1166;-69